Time;durP1;ratioP1;P1;durP2;ratioP2;P2;SDS_P1;SDS_P2;PMS_P1;PMS_P2;Temp;Humidity;BMP_temperature;BMP_pressure;BME280_temperature;BME280_humidity;BME280_pressure;Samples;Min_cycle;Max_cycle;Signal;HPM_P1;HPM_P2
2023/01/18 00:00:09;;;;;;;16.38;6.72;;;;;;;-1.09;100.00;97826.22;4960162;28;20030;-76
2023/01/18 00:02:35;;;;;;;19.92;6.97;;;;;;;-1.13;100.00;97806.56;4933777;28;20101;-77
2023/01/18 00:05:00;;;;;;;15.27;7.22;;;;;;;-1.14;100.00;97814.59;4955794;28;20488;-76
2023/01/18 00:07:25;;;;;;;13.68;5.38;;;;;;;-1.15;100.00;97807.72;4963333;28;20065;-77
2023/01/18 00:09:51;;;;;;;19.15;6.25;;;;;;;-1.17;100.00;97810.50;4963079;28;20101;-77
2023/01/18 00:12:17;;;;;;;26.73;6.50;;;;;;;-1.24;100.00;97798.19;4946786;28;20046;-77
2023/01/18 00:14:43;;;;;;;;;;;;;;;-1.26;100.00;97811.47;4948549;28;20051;-77
2023/01/18 00:17:08;;;;;;;14.57;5.68;;;;;;;-1.33;100.00;97806.03;4948447;28;19921;-77
2023/01/18 00:19:34;;;;;;;10.90;5.10;;;;;;;-1.31;100.00;97825.03;4947122;28;20038;-77
2023/01/18 00:22:00;;;;;;;;;;;;;;;-1.37;100.00;97828.25;4948430;28;20027;-77
2023/01/18 00:24:26;;;;;;;11.30;5.68;;;;;;;-1.44;100.00;97829.88;4946812;28;20573;-77
2023/01/18 00:26:52;;;;;;;;;;;;;;;-1.46;100.00;97847.53;4953054;28;20122;-77
2023/01/18 00:29:17;;;;;;;18.00;6.93;;;;;;;-1.45;100.00;97866.66;4963037;28;20000;-76
2023/01/18 00:31:43;;;;;;;14.13;5.80;;;;;;;-1.39;100.00;97893.03;4946617;28;20042;-77
2023/01/18 00:34:08;;;;;;;18.95;6.93;;;;;;;-1.41;100.00;97868.81;4959521;28;20089;-77
2023/01/18 00:36:33;;;;;;;14.25;6.70;;;;;;;-1.44;100.00;97874.38;4965631;28;20045;-77
2023/01/18 00:38:59;;;;;;;22.80;6.50;;;;;;;-1.34;100.00;97901.22;4950046;28;20046;-76
2023/01/18 00:41:24;;;;;;;16.05;7.70;;;;;;;-1.38;100.00;97899.06;4930455;29;20027;-77
2023/01/18 00:43:50;;;;;;;14.80;7.30;;;;;;;-1.44;100.00;97892.69;4946584;28;20485;-77
2023/01/18 00:46:19;;;;;;;18.20;6.78;;;;;;;-1.39;100.00;97919.19;4946214;28;20035;-77
2023/01/18 00:48:44;;;;;;;18.55;7.88;;;;;;;-1.34;100.00;97924.78;4948351;28;20086;-77
2023/01/18 00:51:13;;;;;;;19.13;9.48;;;;;;;-1.36;100.00;97911.06;4951380;28;20038;-76
2023/01/18 00:53:40;;;;;;;16.02;7.75;;;;;;;-1.33;100.00;97912.53;4950064;28;20034;-76
2023/01/18 00:56:08;;;;;;;15.93;6.82;;;;;;;-1.37;100.00;97891.06;4950870;28;20118;-76
2023/01/18 00:58:33;;;;;;;12.80;6.90;;;;;;;-1.33;100.00;97902.06;4950081;28;20043;-76
2023/01/18 01:00:59;;;;;;;19.63;7.45;;;;;;;-1.41;100.00;97891.53;4950813;28;20086;-77
2023/01/18 01:03:25;;;;;;;15.55;7.03;;;;;;;-1.44;100.00;97890.06;4950179;28;20090;-77
2023/01/18 01:08:34;;;;;;;19.65;7.95;;;;;;;-1.39;100.00;97913.97;4948233;28;20035;-77
2023/01/18 01:11:11;;;;;;;20.60;7.93;;;;;;;-1.36;100.00;97912.81;4949590;28;20129;-77
2023/01/18 01:27:19;;;;;;;22.67;8.52;;;;;;;-1.21;100.00;97889.53;4963743;28;20038;-77
2023/01/18 01:29:44;;;;;;;21.83;9.00;;;;;;;-1.20;100.00;97878.06;4967169;28;20030;-76
2023/01/18 01:32:09;;;;;;;15.65;7.60;;;;;;;-1.25;100.00;97868.06;4957861;28;20038;-76
2023/01/18 01:34:35;;;;;;;15.23;8.23;;;;;;;-1.17;100.00;97889.03;4949464;28;20047;-76
2023/01/18 01:37:01;;;;;;;17.45;8.20;;;;;;;-1.18;100.00;97870.88;4949290;28;20487;-74
2023/01/18 01:39:27;;;;;;;21.30;8.73;;;;;;;-1.18;100.00;97869.06;4956684;28;20246;-75
2023/01/18 01:41:52;;;;;;;19.95;8.93;;;;;;;-1.23;100.00;97873.16;4969570;28;20161;-75
2023/01/18 01:44:23;;;;;;;19.52;7.80;;;;;;;-1.18;100.00;97878.72;4968747;28;20086;-75
2023/01/18 01:47:08;;;;;;;23.92;8.73;;;;;;;-1.16;100.00;97880.19;4967846;28;20030;-74
2023/01/18 01:49:40;;;;;;;16.20;8.25;;;;;;;-1.23;100.00;97883.63;4946515;28;20042;-77
2023/01/18 01:52:09;;;;;;;19.35;7.78;;;;;;;-1.17;100.00;97888.22;4953798;28;20158;-77
2023/01/18 01:54:44;;;;;;;21.17;8.57;;;;;;;-1.17;100.00;97904.75;4963856;28;20027;-74
2023/01/18 01:57:16;;;;;;;21.77;7.82;;;;;;;-1.15;100.00;97901.97;4964785;28;20093;-77
2023/01/18 01:59:49;;;;;;;18.00;9.05;;;;;;;-1.14;100.00;97904.44;4956851;28;20030;-77
2023/01/18 02:02:15;;;;;;;27.98;8.32;;;;;;;-1.13;100.00;97894.78;4964229;28;20043;-77
2023/01/18 02:04:43;;;;;;;17.73;8.10;;;;;;;-1.05;100.00;97913.16;4956685;28;20032;-77
2023/01/18 02:07:09;;;;;;;27.40;9.35;;;;;;;-1.06;100.00;97911.50;4948836;28;20058;-77
2023/01/18 02:09:35;;;;;;;25.13;9.02;;;;;;;-1.04;100.00;97914.78;4952970;28;20042;-74
2023/01/18 02:12:01;;;;;;;17.30;7.90;;;;;;;-0.99;100.00;97922.97;4948622;28;20027;-75
2023/01/18 02:14:28;;;;;;;17.38;8.15;;;;;;;-0.92;100.00;97912.69;4932629;28;20027;-75
2023/01/18 02:17:31;;;;;;;21.80;8.25;;;;;;;-0.84;100.00;97907.50;4951213;28;20038;-75
2023/01/18 02:20:36;;;;;;;16.98;7.80;;;;;;;-0.82;100.00;97897.69;4966316;28;20122;-77
2023/01/18 02:23:06;;;;;;;;;;;;;;;-0.83;100.00;97880.31;4938533;29;20110;-74
2023/01/18 02:26:08;;;;;;;18.52;9.70;;;;;;;-0.88;100.00;97877.34;4945004;28;19918;-75
2023/01/18 02:28:40;;;;;;;21.00;9.80;;;;;;;-0.86;100.00;97894.53;4961579;28;20031;-76
2023/01/18 02:31:19;;;;;;;20.88;9.05;;;;;;;-0.85;100.00;97897.97;4947868;28;20039;-74
2023/01/18 02:34:06;;;;;;;17.00;7.53;;;;;;;-0.81;100.00;97901.09;4964299;28;20067;-75
2023/01/18 02:36:43;;;;;;;18.65;8.93;;;;;;;-0.83;100.00;97896.03;4960818;28;20047;-77
2023/01/18 02:39:37;;;;;;;18.85;9.00;;;;;;;-0.80;100.00;97906.16;4949759;28;20027;-74
2023/01/18 02:48:04;;;;;;;19.45;7.72;;;;;;;-0.65;100.00;97950.94;4947029;28;20114;-74
2023/01/18 02:50:30;;;;;;;20.63;8.43;;;;;;;-0.68;100.00;97946.84;4960295;28;20023;-75
2023/01/18 02:52:55;;;;;;;24.23;9.68;;;;;;;-0.80;100.00;97927.13;4949021;28;20046;-75
2023/01/18 02:55:30;;;;;;;18.27;9.15;;;;;;;-0.75;100.00;97929.28;4947367;28;20043;-74
2023/01/18 02:58:02;;;;;;;22.50;9.25;;;;;;;-0.73;100.00;97928.13;4947902;28;20042;-75
2023/01/18 03:00:28;;;;;;;17.42;8.95;;;;;;;-0.73;100.00;97928.13;4947633;28;20251;-74
2023/01/18 03:02:56;;;;;;;23.15;9.15;;;;;;;-0.78;100.00;97914.69;4947666;28;20035;-75
2023/01/18 03:05:23;;;;;;;15.10;8.50;;;;;;;-0.79;100.00;97920.94;4948779;28;20106;-74
2023/01/18 03:08:05;;;;;;;19.70;9.98;;;;;;;-0.76;100.00;97930.25;4947891;28;20393;-75
2023/01/18 03:10:34;;;;;;;19.30;9.40;;;;;;;-0.83;100.00;97921.41;4944172;28;20198;-76
2023/01/18 03:13:08;;;;;;;17.33;8.55;;;;;;;-0.82;100.00;97934.34;4951220;28;20535;-76
2023/01/18 03:15:41;;;;;;;16.20;8.07;;;;;;;-0.74;100.00;97951.88;4966509;28;20116;-75
2023/01/18 03:18:26;;;;;;;18.13;9.95;;;;;;;-0.78;100.00;97946.13;4966906;28;20038;-76
2023/01/18 03:20:54;;;;;;;14.25;8.88;;;;;;;-0.73;100.00;97962.19;4960426;28;20042;-76
2023/01/18 03:23:40;;;;;;;21.80;9.48;;;;;;;-0.80;100.00;97942.84;4955863;28;20022;-77
2023/01/18 03:26:13;;;;;;;21.15;10.13;;;;;;;-0.75;100.00;97973.81;4945590;28;20118;-77
2023/01/18 03:34:27;;;;;;;19.70;9.93;;;;;;;-0.79;100.00;97993.47;4963259;28;20519;-76
2023/01/18 03:36:55;;;;;;;21.88;10.55;;;;;;;-0.78;100.00;98002.94;4946838;28;20023;-77
2023/01/18 03:39:20;;;;;;;20.60;9.05;;;;;;;-0.69;100.00;98033.44;4963609;28;20034;-77
2023/01/18 03:41:49;;;;;;;18.90;9.07;;;;;;;-0.59;100.00;98038.56;4980756;28;20042;-74
2023/01/18 03:44:36;;;;;;;17.42;8.90;;;;;;;-0.71;100.00;98022.31;4966704;28;20636;-75
2023/01/18 03:47:03;;;;;;;18.55;8.98;;;;;;;-0.74;100.00;98020.00;4956148;28;20100;-77
2023/01/18 03:49:30;;;;;;;15.48;8.55;;;;;;;-0.68;100.00;98051.66;4953371;28;20039;-77
2023/01/18 03:52:18;;;;;;;17.02;8.93;;;;;;;-0.61;100.00;98078.03;4946952;28;20111;-77
2023/01/18 03:54:56;;;;;;;16.33;9.07;;;;;;;-0.62;100.00;98084.25;4947055;28;20043;-75
2023/01/18 03:57:38;;;;;;;18.20;9.45;;;;;;;-0.64;100.00;98099.31;4931262;29;20035;-75
2023/01/18 04:00:06;;;;;;;16.75;8.98;;;;;;;-0.62;100.00;98123.56;4940137;28;20448;-77
2023/01/18 04:02:38;;;;;;;23.33;10.70;;;;;;;-0.55;100.00;98145.56;4948322;28;20412;-75
2023/01/18 04:05:04;;;;;;;18.55;9.93;;;;;;;-0.70;100.00;98132.22;4946739;28;20043;-75
2023/01/18 04:07:30;;;;;;;20.02;10.07;;;;;;;-0.65;100.00;98143.03;4947127;28;20035;-74
2023/01/18 04:09:56;;;;;;;;;;;;;;;-0.72;100.00;98146.44;4957930;28;20551;-77
2023/01/18 04:12:21;;;;;;;24.40;10.57;;;;;;;-0.82;100.00;98164.88;4946660;28;19914;-77
2023/01/18 04:14:47;;;;;;;25.48;11.77;;;;;;;-0.78;100.00;98192.41;4954308;28;20513;-77
2023/01/18 04:17:12;;;;;;;25.42;11.45;;;;;;;-0.77;100.00;98208.94;4962838;28;20478;-77
2023/01/18 04:19:39;;;;;;;23.58;11.18;;;;;;;-0.87;100.00;98215.13;4948234;28;20031;-76
2023/01/18 04:22:05;;;;;;;26.08;12.45;;;;;;;-0.88;100.00;98226.56;4962725;28;20074;-77
2023/01/18 04:24:30;;;;;;;21.85;10.63;;;;;;;-0.88;100.00;98237.03;4964625;28;20062;-75
2023/01/18 04:26:56;;;;;;;30.23;10.75;;;;;;;-0.83;100.00;98251.47;4977748;28;20034;-77
2023/01/18 04:29:21;;;;;;;23.17;12.57;;;;;;;-0.95;100.00;98238.59;4969985;28;20049;-76
2023/01/18 04:31:46;;;;;;;25.85;12.18;;;;;;;-0.97;100.00;98258.88;4963918;28;20031;-77
2023/01/18 04:34:12;;;;;;;26.58;11.85;;;;;;;-0.89;100.00;98274.69;4966753;28;20130;-77
2023/01/18 04:36:37;;;;;;;30.25;11.63;;;;;;;-0.86;100.00;98277.00;4967190;28;20054;-76
2023/01/18 04:39:03;;;;;;;25.83;11.30;;;;;;;-0.83;100.00;98272.44;4968059;28;20030;-76
2023/01/18 04:41:28;;;;;;;22.15;11.10;;;;;;;-0.76;100.00;98278.72;4951447;28;20066;-76
2023/01/18 04:43:54;;;;;;;26.67;12.02;;;;;;;-0.71;100.00;98266.00;4966245;28;20035;-76
2023/01/18 04:46:19;;;;;;;20.90;10.38;;;;;;;-0.71;100.00;98274.66;4966188;28;20456;-76
2023/01/18 04:48:48;;;;;;;20.50;10.52;;;;;;;-0.71;100.00;98268.59;4969596;28;20344;-76
2023/01/18 04:51:14;;;;;;;23.63;11.05;;;;;;;-0.67;100.00;98265.53;4963541;28;20035;-76
2023/01/18 04:53:43;;;;;;;25.20;11.60;;;;;;;-0.67;100.00;98257.66;4951430;28;20114;-76
2023/01/18 04:56:09;;;;;;;23.85;11.38;;;;;;;-0.68;100.00;98232.47;4950979;28;20114;-75
2023/01/18 04:58:35;;;;;;;22.65;11.35;;;;;;;-0.74;100.00;98200.78;4950214;28;20891;-75
2023/01/18 05:01:02;;;;;;;23.85;11.55;;;;;;;-0.70;100.00;98181.19;4966186;28;20027;-73
2023/01/18 05:03:27;;;;;;;22.40;11.82;;;;;;;-0.70;100.00;98173.31;4966245;28;20062;-74
2023/01/18 05:05:53;;;;;;;25.50;12.40;;;;;;;-0.77;100.00;98146.06;4965710;28;20065;-77
2023/01/18 05:08:18;;;;;;;21.15;11.45;;;;;;;-0.70;100.00;98166.28;4966107;28;20035;-74
2023/01/18 05:10:44;;;;;;;28.10;13.45;;;;;;;-0.80;100.00;98130.66;4960330;28;20026;-76
2023/01/18 05:13:09;;;;;;;35.07;13.70;;;;;;;-0.79;100.00;98122.66;4959594;28;20094;-76
2023/01/18 05:15:34;;;;;;;29.20;13.27;;;;;;;-0.83;100.00;98095.13;4950555;28;20340;-76
2023/01/18 05:18:01;;;;;;;27.30;13.80;;;;;;;-0.80;100.00;98083.50;4954790;28;20035;-77
2023/01/18 05:20:26;;;;;;;28.58;13.90;;;;;;;-0.76;100.00;98069.13;4965087;28;20039;-76
2023/01/18 05:22:51;;;;;;;24.30;13.52;;;;;;;-0.85;100.00;98037.63;4953492;28;20453;-76
2023/01/18 05:25:17;;;;;;;27.58;13.60;;;;;;;-0.82;100.00;98030.44;4955471;28;20030;-76
2023/01/18 05:27:42;;;;;;;26.52;12.30;;;;;;;-0.76;100.00;98020.16;4969912;28;20043;-76
2023/01/18 05:30:09;;;;;;;26.85;13.05;;;;;;;-0.74;100.00;98004.28;4967749;28;20035;-76
2023/01/18 05:32:35;;;;;;;26.92;14.00;;;;;;;-0.72;100.00;98008.38;4960314;28;20094;-77
2023/01/18 05:35:01;;;;;;;28.30;13.38;;;;;;;-0.79;100.00;97996.09;4950474;28;20031;-76
2023/01/18 05:37:26;;;;;;;;;;;;;;;-0.78;100.00;97995.09;4949508;28;20031;-76
2023/01/18 05:39:52;;;;;;;26.58;13.65;;;;;;;-0.74;100.00;97996.44;4949340;28;20008;-76
2023/01/18 05:42:17;;;;;;;24.42;13.45;;;;;;;-0.79;100.00;97977.75;4951919;28;20035;-76
2023/01/18 05:44:42;;;;;;;26.08;12.75;;;;;;;-0.81;100.00;97972.66;4948919;28;20075;-76
2023/01/18 05:47:08;;;;;;;27.38;13.52;;;;;;;-0.85;100.00;97966.09;4965032;28;20043;-76
2023/01/18 05:49:33;;;;;;;26.27;13.50;;;;;;;-0.96;100.00;97956.72;4950410;28;20042;-76
2023/01/18 05:51:58;;;;;;;28.73;14.07;;;;;;;-0.97;100.00;97965.53;4954124;28;20082;-76
2023/01/18 05:54:24;;;;;;;28.63;13.55;;;;;;;-0.98;100.00;97976.19;4949241;28;20091;-76
2023/01/18 05:56:49;;;;;;;31.00;13.55;;;;;;;-0.99;100.00;97998.91;4954706;28;20874;-76
2023/01/18 05:59:15;;;;;;;27.00;14.07;;;;;;;-1.10;100.00;98000.03;4948803;28;20066;-76
2023/01/18 06:01:41;;;;;;;39.38;16.95;;;;;;;-1.17;100.00;98019.13;4948759;28;20114;-76
2023/01/18 06:04:07;;;;;;;34.40;15.70;;;;;;;-1.27;100.00;98020.03;4950517;28;20034;-76
2023/01/18 06:06:32;;;;;;;26.80;13.80;;;;;;;-1.19;100.00;98040.22;4949675;28;20430;-77
2023/01/18 06:08:57;;;;;;;24.02;12.35;;;;;;;-1.35;100.00;98029.66;4965146;28;20031;-77
2023/01/18 06:11:23;;;;;;;25.00;13.05;;;;;;;-1.40;100.00;98052.84;4948335;28;20035;-76
2023/01/18 06:13:48;;;;;;;29.33;14.90;;;;;;;-1.36;100.00;98085.56;4948687;28;20035;-76
2023/01/18 06:16:14;;;;;;;29.40;14.70;;;;;;;-1.40;100.00;98102.59;4948394;28;20033;-75
2023/01/18 06:18:40;;;;;;;26.33;13.73;;;;;;;-1.36;100.00;98130.91;4949801;28;20808;-76
2023/01/18 06:21:06;;;;;;;;;;;;;;;-1.35;100.00;98139.59;4953834;28;20117;-75
2023/01/18 06:23:31;;;;;;;30.40;13.18;;;;;;;-1.41;100.00;98140.19;4948613;28;19914;-76
2023/01/18 06:25:57;;;;;;;27.95;15.10;;;;;;;-1.43;100.00;98160.44;4966451;28;20016;-76
2023/01/18 06:28:23;;;;;;;32.28;14.98;;;;;;;-1.45;100.00;98168.47;4939785;29;20074;-76
2023/01/18 06:30:52;;;;;;;25.70;12.65;;;;;;;-1.44;100.00;98179.75;4961880;28;20046;-76
2023/01/18 06:33:17;;;;;;;31.15;15.35;;;;;;;-1.50;100.00;98189.84;4969841;28;20035;-76
2023/01/18 06:35:42;;;;;;;27.40;14.18;;;;;;;-1.55;100.00;98193.84;4949033;28;20039;-76
2023/01/18 06:38:09;;;;;;;31.88;15.25;;;;;;;-1.55;100.00;98225.25;4964511;28;20067;-76
2023/01/18 06:40:35;;;;;;;31.30;15.75;;;;;;;-1.60;100.00;98230.13;4953045;28;20027;-76
2023/01/18 06:43:00;;;;;;;35.20;16.70;;;;;;;-1.63;100.00;98243.50;4953014;28;20030;-75
2023/01/18 06:45:25;;;;;;;40.22;16.48;;;;;;;-1.77;100.00;98242.19;4958938;28;20519;-75
2023/01/18 06:47:51;;;;;;;36.15;15.88;;;;;;;-1.85;100.00;98253.38;4951255;28;20039;-76
2023/01/18 06:50:17;;;;;;;29.92;14.60;;;;;;;-1.89;100.00;98270.31;4947778;28;20055;-76
2023/01/18 06:52:43;;;;;;;33.28;15.73;;;;;;;-1.86;100.00;98296.19;4949442;28;20034;-76
2023/01/18 06:55:10;;;;;;;;;;;;;;;-1.89;100.00;98306.94;4948269;28;20485;-75
2023/01/18 06:57:35;;;;;;;32.70;14.80;;;;;;;-2.01;100.00;98303.69;4947701;28;19918;-76
2023/01/18 07:00:04;;;;;;;31.98;14.82;;;;;;;-1.98;100.00;98323.47;4966544;28;20057;-76
2023/01/18 07:02:31;;;;;;;37.10;16.63;;;;;;;-2.02;100.00;98319.50;4948988;28;20931;-76
2023/01/18 07:04:56;;;;;;;36.25;17.58;;;;;;;-2.04;100.00;98324.84;4947879;28;20484;-76
2023/01/18 07:07:21;;;;;;;39.22;17.40;;;;;;;-2.07;100.00;98330.38;4948115;28;20050;-76
2023/01/18 07:09:47;;;;;;;41.65;17.73;;;;;;;-2.04;100.00;98347.56;4963620;28;20043;-76
2023/01/18 07:12:12;;;;;;;35.05;16.02;;;;;;;-2.15;100.00;98333.72;4963741;28;20039;-76
2023/01/18 07:14:38;;;;;;;34.97;17.70;;;;;;;-2.19;100.00;98339.34;4963575;28;20030;-76
2023/01/18 07:17:03;;;;;;;34.05;15.75;;;;;;;-2.19;100.00;98355.03;4963303;28;20038;-76
2023/01/18 07:19:29;;;;;;;38.70;17.35;;;;;;;-2.19;100.00;98366.31;4947491;28;20081;-76
2023/01/18 07:21:54;;;;;;;38.20;17.13;;;;;;;-2.16;100.00;98373.88;4952719;28;20708;-76
2023/01/18 07:24:21;;;;;;;38.78;17.92;;;;;;;-2.16;100.00;98389.56;4951226;28;20634;-76
2023/01/18 07:26:46;;;;;;;32.65;16.05;;;;;;;-2.18;100.00;98394.13;4955587;28;20132;-75
2023/01/18 07:29:11;;;;;;;48.80;21.60;;;;;;;-2.26;100.00;98378.28;4965610;28;20035;-76
2023/01/18 07:31:37;;;;;;;41.75;18.70;;;;;;;-2.32;100.00;98378.84;4946875;28;20035;-75
2023/01/18 07:34:03;;;;;;;41.60;17.40;;;;;;;-2.36;100.00;98393.16;4947199;28;20042;-76
2023/01/18 07:36:28;;;;;;;37.22;18.92;;;;;;;-2.38;100.00;98400.31;4948199;28;20091;-76
2023/01/18 07:38:54;;;;;;;35.63;18.23;;;;;;;-2.42;100.00;98419.84;4949594;28;20027;-76
2023/01/18 07:41:21;;;;;;;58.55;19.08;;;;;;;-2.47;100.00;98422.88;4948128;28;20137;-76
2023/01/18 07:43:50;;;;;;;52.85;24.30;;;;;;;-2.36;100.00;98456.72;4962816;28;20039;-76
2023/01/18 07:46:19;;;;;;;45.42;18.90;;;;;;;-2.36;100.00;98455.91;4936698;28;20026;-75
2023/01/18 07:48:45;;;;;;;44.25;18.63;;;;;;;-2.44;100.00;98450.50;4982696;28;20655;-76
2023/01/18 07:51:10;;;;;;;44.13;19.30;;;;;;;-2.52;100.00;98439.91;4949369;28;20027;-76
2023/01/18 07:53:37;;;;;;;40.22;19.60;;;;;;;-2.50;100.00;98445.84;4958081;28;20039;-75
2023/01/18 07:56:24;;;;;;;43.13;18.83;;;;;;;-2.44;100.00;98467.00;4962781;28;20039;-76
2023/01/18 07:58:51;;;;;;;44.70;18.67;;;;;;;-2.28;100.00;98495.22;4948687;28;20035;-75
2023/01/18 08:01:21;;;;;;;40.83;17.38;;;;;;;-2.25;100.00;98492.34;4967148;28;20046;-76
2023/01/18 08:03:48;;;;;;;39.20;16.63;;;;;;;-2.34;100.00;98474.88;4971181;28;20550;-76
2023/01/18 08:06:17;;;;;;;43.72;17.83;;;;;;;-2.40;100.00;98475.41;4970618;28;20019;-76
2023/01/18 08:08:43;;;;;;;44.92;19.70;;;;;;;-2.49;100.00;98457.94;4971635;28;20098;-77
2023/01/18 08:11:08;;;;;;;39.17;18.67;;;;;;;-2.57;100.00;98456.81;4952186;28;20035;-76
2023/01/18 08:13:34;;;;;;;46.42;19.60;;;;;;;-2.50;100.00;98475.41;4951074;28;20134;-76
2023/01/18 08:16:00;;;;;;;;;;;;;;;-2.36;100.00;98501.13;4950677;28;20058;-76
2023/01/18 08:18:26;;;;;;;42.85;17.63;;;;;;;-2.35;100.00;98500.16;4950936;28;19918;-76
2023/01/18 08:20:51;;;;;;;43.58;19.05;;;;;;;-2.37;100.00;98482.97;4961487;28;20027;-76
2023/01/18 08:23:17;;;;;;;48.15;17.73;;;;;;;-2.33;100.00;98497.44;4961284;28;20404;-76
2023/01/18 08:25:43;;;;;;;39.55;18.38;;;;;;;-2.20;100.00;98524.16;4949010;28;20127;-76
2023/01/18 08:28:09;;;;;;;42.13;20.63;;;;;;;-2.14;100.00;98520.97;4966711;28;20109;-76
2023/01/18 08:30:38;;;;;;;35.05;17.73;;;;;;;-2.01;100.00;98527.75;4961583;28;20785;-76
2023/01/18 08:33:04;;;;;;;37.40;18.02;;;;;;;-1.93;100.00;98517.41;4965968;28;20520;-76
2023/01/18 08:35:30;;;;;;;;;;;;;;;-1.85;100.00;98509.72;4949247;28;20089;-76
2023/01/18 08:37:58;;;;;;;34.75;16.58;;;;;;;-1.75;100.00;98500.06;4951871;28;20288;-76
2023/01/18 08:40:24;;;;;;;40.10;16.75;;;;;;;-1.72;100.00;98476.22;4961058;28;20031;-76
2023/01/18 08:42:54;;;;;;;35.63;15.80;;;;;;;-1.70;100.00;98450.75;4950762;28;20031;-76
2023/01/18 08:45:19;;;;;;;40.53;18.38;;;;;;;-1.56;100.00;98431.16;4951373;28;20518;-77
2023/01/18 08:47:44;;;;;;;32.58;16.08;;;;;;;-1.35;100.00;98428.34;4948078;28;20047;-76
2023/01/18 08:50:10;;;;;;;35.60;16.95;;;;;;;-1.40;100.00;98391.31;4969176;28;20047;-76
2023/01/18 08:52:35;;;;;;;33.85;16.73;;;;;;;-1.18;100.00;98381.44;4955916;28;20130;-76
2023/01/18 08:55:02;;;;;;;31.20;15.90;;;;;;;-1.17;100.00;98339.41;4966239;28;20437;-76
2023/01/18 08:57:27;;;;;;;37.45;15.25;;;;;;;-1.15;100.00;98308.66;4950253;28;20449;-76
2023/01/18 08:59:55;;;;;;;36.25;15.57;;;;;;;-0.89;100.00;98323.63;4961097;28;20039;-76
2023/01/18 09:02:20;;;;;;;37.05;16.33;;;;;;;-0.72;100.00;98293.19;4950399;28;20150;-75
2023/01/18 09:04:47;;;;;;;34.67;16.60;;;;;;;-0.76;100.00;98247.28;4963105;28;20111;-76
2023/01/18 09:07:13;;;;;;;30.88;15.00;;;;;;;-0.71;100.00;98203.91;4950186;28;20046;-76
2023/01/18 09:09:39;;;;;;;30.67;14.60;;;;;;;-0.33;100.00;98222.03;4949353;28;20028;-76
2023/01/18 09:12:04;;;;;;;27.13;13.98;;;;;;;-0.57;100.00;98116.06;4949686;28;20035;-76
2023/01/18 09:14:29;;;;;;;39.97;16.45;;;;;;;-0.48;100.00;98103.81;4950112;28;20556;-76
2023/01/18 09:16:55;;;;;;;34.78;13.88;;;;;;;-0.34;100.00;98097.16;4956740;28;20035;-76
2023/01/18 09:19:20;;;;;;;28.05;16.17;;;;;;;0.45;100.00;98163.31;4949706;28;20027;-76
2023/01/18 09:21:47;;;;;;;29.58;14.30;;;;;;;0.66;100.00;98050.75;4954052;28;20031;-76
2023/01/18 09:24:13;;;;;;;29.98;14.18;;;;;;;0.67;100.00;97925.53;4951697;28;20197;-77
2023/01/18 09:26:38;;;;;;;32.70;14.18;;;;;;;0.79;100.00;97867.22;4949285;28;20031;-77
2023/01/18 09:29:03;;;;;;;33.05;14.52;;;;;;;0.63;100.00;97741.22;4949323;28;20066;-76
2023/01/18 09:31:29;;;;;;;32.13;15.10;;;;;;;1.15;100.00;97782.63;4962898;28;20031;-77
2023/01/18 09:33:56;;;;;;;27.17;13.95;;;;;;;1.01;100.00;97667.78;4949313;28;20605;-76
2023/01/18 09:36:25;;;;;;;26.25;12.32;;;;;;;1.81;100.00;97703.19;4959796;28;20445;-77
2023/01/18 09:38:51;;;;;;;29.35;13.75;;;;;;;1.39;100.00;97425.94;4949067;28;20047;-76
2023/01/18 09:41:36;;;;;;;;;;;;;;;1.24;100.00;97382.13;4949440;28;20015;-76
2023/01/18 09:44:14;;;;;;;26.73;13.35;;;;;;;1.37;100.00;97355.13;4932814;29;19933;-77
2023/01/18 09:46:41;;;;;;;25.45;12.38;;;;;;;1.58;100.00;97314.09;4949038;28;20034;-77
2023/01/18 09:49:18;;;;;;;25.60;12.75;;;;;;;1.48;100.00;97290.75;4968070;28;20046;-76
2023/01/18 09:51:55;;;;;;;30.65;13.32;;;;;;;1.45;100.00;97255.13;4949025;28;20588;-77
2023/01/18 09:54:52;;;;;;;30.13;14.52;;;;;;;1.11;100.00;97208.53;4964245;28;20082;-77
2023/01/18 09:57:43;;;;;;;27.42;12.88;;;;;;;1.75;100.00;97370.66;4945853;28;20047;-77
2023/01/18 10:00:33;;;;;;;31.63;12.95;;;;;;;1.35;100.00;97209.13;4947434;28;20062;-76
2023/01/18 10:03:03;;;;;;;27.20;13.63;;;;;;;1.83;100.00;97302.16;4936152;28;20030;-77
2023/01/18 10:05:37;;;;;;;27.33;13.98;;;;;;;2.06;100.00;97294.03;4949182;28;20031;-77
2023/01/18 10:08:24;;;;;;;31.90;16.48;;;;;;;2.06;100.00;97180.88;4954505;28;20059;-77
2023/01/18 10:11:15;;;;;;;36.67;15.20;;;;;;;1.55;100.00;97091.81;4948560;28;20031;-77
2023/01/18 10:13:52;;;;;;;36.55;15.82;;;;;;;1.50;100.00;97112.59;4949298;28;20408;-77
2023/01/18 10:16:19;;;;;;;27.55;13.98;;;;;;;2.02;100.00;97213.03;4962748;28;20374;-78
2023/01/18 10:18:47;;;;;;;28.05;13.20;;;;;;;1.44;100.00;96950.41;4949159;28;20027;-77
2023/01/18 10:21:21;;;;;;;27.67;14.00;;;;;;;1.11;100.00;97006.25;4932489;29;20118;-78
2023/01/18 10:24:08;;;;;;;28.08;13.85;;;;;;;1.61;100.00;97246.13;4951162;28;20031;-78
2023/01/18 10:26:36;;;;;;;25.40;12.20;;;;;;;1.74;100.00;97248.06;4949602;28;20031;-76
2023/01/18 10:29:36;;;;;;;26.05;13.57;;;;;;;1.48;100.00;97143.53;4950318;28;20196;-78
2023/01/18 10:32:23;;;;;;;31.52;15.65;;;;;;;1.25;100.00;97162.97;4935036;28;20113;-78
2023/01/18 10:34:50;;;;;;;29.30;13.75;;;;;;;1.97;100.00;97386.44;4965731;28;20035;-77
2023/01/18 10:37:44;;;;;;;32.05;13.50;;;;;;;1.90;100.00;97139.09;4984103;23;20178;-90
2023/01/18 10:40:11;;;;;;;28.17;13.02;;;;;;;1.91;100.00;97201.22;4955445;28;20491;-90
2023/01/18 10:42:43;;;;;;;24.80;12.27;;;;;;;2.53;100.00;97215.28;4941681;28;20047;-90
2023/01/18 10:45:18;;;;;;;22.38;12.60;;;;;;;1.91;100.00;96859.25;4955220;28;20038;-91
2023/01/18 10:47:43;;;;;;;22.17;11.57;;;;;;;1.73;100.00;96903.75;4955067;28;20089;-89
2023/01/18 10:50:15;;;;;;;23.65;12.02;;;;;;;3.13;100.00;97257.56;4939934;28;20018;-90
2023/01/18 10:52:40;;;;;;;26.98;12.25;;;;;;;2.94;100.00;96830.47;4936593;28;20496;-90
2023/01/18 10:55:16;;;;;;;23.60;12.73;;;;;;;2.73;100.00;96784.16;4955225;28;20127;-90
2023/01/18 10:57:46;;;;;;;25.17;13.63;;;;;;;2.16;100.00;96611.28;4955555;28;20117;-90
2023/01/18 11:00:23;;;;;;;22.08;11.85;;;;;;;2.05;100.00;96731.13;4956738;28;20151;-89
2023/01/18 11:02:50;;;;;;;27.15;12.63;;;;;;;2.12;100.00;96887.19;4956759;28;20042;-90
2023/01/18 11:05:31;;;;;;;26.58;12.45;;;;;;;2.10;100.00;96826.84;4955214;28;20019;-90
2023/01/18 11:08:10;;;;;;;25.60;12.73;;;;;;;1.77;100.00;96857.63;4939495;28;20343;-89
2023/01/18 11:10:36;;;;;;;26.23;12.52;;;;;;;2.03;100.00;97028.63;4957704;28;20496;-90
2023/01/18 11:13:02;;;;;;;;;;;;;;;2.26;100.00;97006.41;4957985;28;20413;-90
2023/01/18 11:15:28;;;;;;;26.75;14.05;;;;;;;2.07;100.00;96911.47;4956441;28;19920;-90
2023/01/18 11:17:56;;;;;;;21.05;11.23;;;;;;;2.25;100.00;97007.44;4955304;28;20027;-90
2023/01/18 11:20:43;;;;;;;28.27;12.48;;;;;;;2.73;100.00;97081.00;4954332;28;20575;-90
2023/01/18 11:23:08;;;;;;;27.05;12.35;;;;;;;2.88;100.00;97033.34;4955888;28;20031;-90
2023/01/18 11:25:47;;;;;;;24.67;12.88;;;;;;;2.67;100.00;96829.78;4955436;28;20847;-90
2023/01/18 11:29:04;;;;;;;23.55;12.00;;;;;;;3.37;100.00;96977.50;4970550;28;20492;-91
2023/01/18 11:32:07;;;;;;;25.90;11.82;;;;;;;3.70;100.00;96918.53;4854788;29;20042;-91
2023/01/18 11:34:36;;;;;;;22.50;11.40;;;;;;;2.53;100.00;96376.16;4787989;29;20145;-90
2023/01/18 11:37:02;;;;;;;18.88;11.45;;;;;;;3.08;100.00;96667.03;4794770;29;20026;-91
2023/01/18 11:39:30;;;;;;;23.52;11.88;;;;;;;3.62;100.00;96797.41;4786988;29;20073;-92
2023/01/18 11:42:30;;;;;;;23.17;12.52;;;;;;;4.12;100.00;96799.22;4796489;29;20057;-92
2023/01/18 11:45:41;;;;;;;23.42;11.43;;;;;;;3.41;100.00;96368.03;4769924;30;20047;-92
2023/01/18 11:48:13;;;;;;;22.92;11.65;;;;;;;3.78;100.00;96667.63;4770771;29;20174;-92
2023/01/18 11:50:55;;;;;;;25.08;12.45;;;;;;;3.50;100.00;96490.63;4769639;29;20608;-92
2023/01/18 11:53:30;;;;;;;21.15;11.23;;;;;;;3.43;100.00;96429.25;4767317;30;20043;-92
2023/01/18 11:56:11;;;;;;;24.75;12.95;;;;;;;3.24;100.00;96371.28;4770836;30;20043;-93